Terminal Aerodrome Forecast
Issued by NWS Missoula, MT

Home | Current Version | Previous Version | Text Only | Print | Product List | Glossary On
Versions: 1 2 3 4 5 6 7 8 9 10 11 12 13 14 15 16
000
FTUS45 KMSO 180500
TAFMSO
TAF
KMSO 180520Z 1806/1906 31007KT P6SM -RA SCT040 OVC050
     FM181000 27007KT P6SM VCSH SCT040 BKN060
     FM181700 28017G27KT P6SM BKN060
     FM182100 28023G35KT P6SM BKN080=

USA.gov is the U.S. government's official web portal to all federal, state and local government web resources and services.